createdAt,value
2019-05-02T00:02:09.127Z,93.80
2019-05-02T00:04:39.046Z,94.00
2019-05-02T00:07:14.358Z,94.00
2019-05-02T00:09:48.550Z,94.00
2019-05-02T00:12:17.590Z,94.30
2019-05-02T00:14:47.983Z,93.90
2019-05-02T00:17:20.328Z,93.80
2019-05-02T00:19:51.258Z,94.10
2019-05-02T00:22:22.474Z,94.50
2019-05-02T00:24:52.389Z,94.40
2019-05-02T00:27:22.256Z,94.70
2019-05-02T00:29:53.760Z,93.70
2019-05-02T00:32:23.927Z,94.30
2019-05-02T00:34:53.811Z,94.80
2019-05-02T00:37:24.494Z,95.20
2019-05-02T00:39:55.412Z,95.10
2019-05-02T00:42:25.432Z,95.10
2019-05-02T00:44:55.306Z,95.40
2019-05-02T00:47:35.965Z,96.30
2019-05-02T00:50:11.159Z,96.00
2019-05-02T00:52:38.990Z,96.10
2019-05-02T00:55:08.991Z,95.90
2019-05-02T00:57:38.848Z,96.00
2019-05-02T01:00:13.263Z,95.00
2019-05-02T01:02:43.261Z,95.20
2019-05-02T01:05:13.690Z,95.80
2019-05-02T01:07:43.609Z,95.80
2019-05-02T01:10:17.347Z,96.30
2019-05-02T01:12:46.174Z,97.10
2019-05-02T01:15:16.521Z,96.70
2019-05-02T01:17:46.422Z,96.90
2019-05-02T01:20:16.287Z,97.00
2019-05-02T01:22:47.189Z,96.70
2019-05-02T01:25:17.722Z,96.80
2019-05-02T01:27:49.264Z,96.80
2019-05-02T01:30:37.287Z,97.10
2019-05-02T01:33:21.701Z,96.90
2019-05-02T01:35:53.194Z,96.80
2019-05-02T01:38:39.932Z,97.30
2019-05-02T01:41:09.861Z,97.20
2019-05-02T01:43:39.742Z,97.30
2019-05-02T01:46:09.649Z,96.90
2019-05-02T01:48:40.019Z,97.20
2019-05-02T01:51:12.114Z,97.10
2019-05-02T01:53:42.486Z,97.50
2019-05-02T01:56:12.417Z,96.30
2019-05-02T01:58:42.309Z,96.00
2019-05-02T02:01:16.087Z,97.50
2019-05-02T02:03:45.579Z,97.20
2019-05-02T02:06:15.315Z,97.50
2019-05-02T02:08:45.845Z,98.10
2019-05-02T02:11:15.701Z,98.10
2019-05-02T02:13:45.649Z,97.70
2019-05-02T02:16:15.521Z,98.20
2019-05-02T02:18:47.002Z,98.20
2019-05-02T02:21:33.890Z,99.10
2019-05-02T02:24:21.198Z,99.90
2019-05-02T02:26:51.749Z,99.90
2019-05-02T02:29:21.682Z,99.90
2019-05-02T02:31:51.549Z,99.90
2019-05-02T02:34:29.389Z,99.90
2019-05-02T02:36:53.092Z,99.90
2019-05-02T02:39:22.973Z,99.90
2019-05-02T02:41:54.203Z,99.90
2019-05-02T02:44:33.902Z,99.90
2019-05-02T02:47:00.130Z,99.90
2019-05-02T02:49:30.055Z,99.90
2019-05-02T02:52:04.756Z,99.90
2019-05-02T02:54:36.495Z,99.90
2019-05-02T02:57:05.083Z,99.90
2019-05-02T02:59:35.042Z,99.90
2019-05-02T03:02:10.017Z,99.90
2019-05-02T03:04:36.662Z,99.90
2019-05-02T03:07:06.571Z,99.90
2019-05-02T03:09:36.574Z,99.90
2019-05-02T03:12:23.126Z,99.90
2019-05-02T03:14:54.969Z,99.90
2019-05-02T03:17:26.442Z,99.90
2019-05-02T03:20:01.627Z,99.90
2019-05-02T03:22:28.022Z,99.90
2019-05-02T03:24:58.166Z,99.90
2019-05-02T03:27:29.779Z,99.90
2019-05-02T03:29:59.678Z,99.90
2019-05-02T03:32:34.096Z,99.90
2019-05-02T03:35:01.668Z,99.90
2019-05-02T03:37:32.641Z,99.90
2019-05-02T03:40:02.552Z,99.90
2019-05-02T03:42:44.048Z,99.90
2019-05-02T03:45:05.084Z,99.90
2019-05-02T03:47:37.016Z,99.90
2019-05-02T03:50:09.432Z,99.90
2019-05-02T03:52:43.524Z,99.90
2019-05-02T03:55:11.710Z,99.90
2019-05-02T03:57:42.278Z,99.90
2019-05-02T04:00:20.182Z,99.90
2019-05-02T04:02:44.939Z,99.90
2019-05-02T04:05:14.936Z,99.90
2019-05-02T04:07:45.211Z,99.90
2019-05-02T04:10:20.163Z,99.90
2019-05-02T04:12:53.018Z,99.90
2019-05-02T04:15:22.430Z,99.90
2019-05-02T04:17:52.664Z,99.90
2019-05-02T04:20:23.388Z,99.90
2019-05-02T04:22:55.090Z,99.90
2019-05-02T04:25:28.139Z,99.90
2019-05-02T04:27:58.012Z,99.90
2019-05-02T04:30:28.061Z,99.90
2019-05-02T04:32:57.976Z,99.90
2019-05-02T04:35:28.854Z,99.90
2019-05-02T04:38:02.717Z,99.90
2019-05-02T04:40:34.954Z,99.90
2019-05-02T04:43:10.444Z,99.90
2019-05-02T04:45:47.250Z,99.90
2019-05-02T04:48:08.177Z,99.90
2019-05-02T04:50:37.920Z,99.90
2019-05-02T04:53:08.632Z,99.90
2019-05-02T04:55:39.695Z,99.90
2019-05-02T04:58:09.578Z,99.90
2019-05-02T05:00:45.175Z,99.90
2019-05-02T05:03:15.676Z,99.90
2019-05-02T05:05:42.703Z,99.90
2019-05-02T05:08:17.476Z,99.90
2019-05-02T05:10:45.041Z,99.90
2019-05-02T05:13:19.858Z,99.90
2019-05-02T05:15:51.279Z,99.90
2019-05-02T05:18:18.453Z,99.90
2019-05-02T05:20:53.238Z,99.90
2019-05-02T05:23:21.693Z,99.90
2019-05-02T05:25:55.749Z,99.90
2019-05-02T05:28:24.915Z,99.90
2019-05-02T05:30:54.952Z,99.90
2019-05-02T05:33:24.844Z,99.90
2019-05-02T05:35:54.766Z,99.90
2019-05-02T05:38:28.574Z,99.90
2019-05-02T05:40:58.056Z,99.90
2019-05-02T05:43:29.155Z,99.90
2019-05-02T05:46:09.084Z,99.90
2019-05-02T05:48:32.199Z,99.90
2019-05-02T05:51:02.298Z,99.90
2019-05-02T05:53:32.216Z,99.90
2019-05-02T05:56:02.902Z,99.90
2019-05-02T05:58:32.820Z,99.90
2019-05-02T06:01:02.668Z,99.90
2019-05-02T06:03:34.058Z,99.90
2019-05-02T06:06:04.271Z,99.90
2019-05-02T06:08:34.206Z,99.90
2019-05-02T06:11:04.174Z,99.90
2019-05-02T06:13:34.074Z,99.90
2019-05-02T06:16:03.991Z,99.90
2019-05-02T06:18:36.485Z,99.90
2019-05-02T06:21:08.708Z,99.90
2019-05-02T06:23:41.071Z,99.90
2019-05-02T06:26:13.541Z,99.90
2019-05-02T06:28:41.585Z,99.90
2019-05-02T06:31:12.498Z,99.90
2019-05-02T06:33:42.359Z,99.90
2019-05-02T06:36:12.226Z,99.90
2019-05-02T06:38:42.194Z,99.90
2019-05-02T06:41:16.058Z,99.90
2019-05-02T06:43:46.738Z,99.90
2019-05-02T06:46:16.676Z,99.90
2019-05-02T06:48:48.218Z,99.90
2019-05-02T06:51:21.058Z,99.90
2019-05-02T06:53:51.246Z,99.90
2019-05-02T06:56:22.065Z,99.90
2019-05-02T06:58:52.014Z,99.90
2019-05-02T07:01:22.953Z,99.90
2019-05-02T07:03:53.084Z,99.90
2019-05-02T07:06:23.104Z,99.90
2019-05-02T07:08:53.176Z,99.90
2019-05-02T07:11:23.052Z,99.90
2019-05-02T07:13:52.979Z,99.90
2019-05-02T07:16:38.415Z,99.90
2019-05-02T07:19:03.600Z,99.90
2019-05-02T07:21:33.479Z,99.90
2019-05-02T07:24:03.716Z,99.90
2019-05-02T07:26:33.594Z,99.90
2019-05-02T07:29:03.492Z,99.90
2019-05-02T07:31:33.447Z,99.90
2019-05-02T07:34:03.375Z,99.90
2019-05-02T07:36:36.370Z,99.90
2019-05-02T07:39:07.750Z,99.90
2019-05-02T07:41:37.670Z,99.90
2019-05-02T07:44:07.581Z,99.90
2019-05-02T07:46:50.709Z,99.90
2019-05-02T07:49:09.019Z,99.90
2019-05-02T07:51:38.849Z,99.90
2019-05-02T07:54:08.763Z,99.90
2019-05-02T07:56:38.666Z,99.90
2019-05-02T07:59:08.623Z,99.90
2019-05-02T08:01:38.520Z,99.90
2019-05-02T08:04:11.093Z,99.90
2019-05-02T08:06:44.512Z,99.90
2019-05-02T08:09:11.777Z,99.90
2019-05-02T08:11:41.860Z,99.90
2019-05-02T08:14:11.727Z,99.90
2019-05-02T08:16:42.513Z,99.90
2019-05-02T08:19:12.461Z,99.90
2019-05-02T08:21:42.387Z,99.90
2019-05-02T08:24:12.291Z,99.90
2019-05-02T08:27:00.170Z,99.90
2019-05-02T08:29:30.787Z,99.90
2019-05-02T08:32:00.952Z,99.90
2019-05-02T08:34:32.803Z,99.90
2019-05-02T08:37:04.921Z,99.90
2019-05-02T08:39:35.309Z,99.90
2019-05-02T08:42:06.151Z,99.90
2019-05-02T08:44:49.450Z,99.90
2019-05-02T08:47:18.360Z,99.90
2019-05-02T08:49:39.151Z,99.90
2019-05-02T08:52:09.203Z,99.90
2019-05-02T08:54:39.020Z,99.90
2019-05-02T08:57:08.917Z,99.90
2019-05-02T08:59:40.893Z,99.90
2019-05-02T09:02:10.229Z,99.90
2019-05-02T09:04:40.093Z,99.90
2019-05-02T09:07:09.946Z,99.90
2019-05-02T09:09:39.785Z,99.90
2019-05-02T09:12:12.492Z,99.90
2019-05-02T09:14:42.604Z,99.90
2019-05-02T09:17:16.429Z,99.90
2019-05-02T09:19:44.098Z,99.90
2019-05-02T09:22:16.749Z,99.90
2019-05-02T09:24:45.402Z,99.90
2019-05-02T09:27:15.288Z,99.90
2019-05-02T09:29:46.190Z,99.90
2019-05-02T09:32:17.203Z,99.90
2019-05-02T09:34:47.609Z,99.90
2019-05-02T09:37:17.529Z,99.90
2019-05-02T09:39:47.366Z,99.90
2019-05-02T09:42:19.072Z,99.90
2019-05-02T09:44:55.690Z,99.90
2019-05-02T09:47:27.326Z,99.90
2019-05-02T09:50:09.073Z,99.90
2019-05-02T09:52:40.861Z,99.90
2019-05-02T09:55:12.203Z,99.90
2019-05-02T09:57:43.361Z,99.90
2019-05-02T10:00:17.911Z,99.90
2019-05-02T10:02:48.124Z,99.90
2019-05-02T10:05:18.092Z,99.90
2019-05-02T10:07:48.653Z,99.90
2019-05-02T10:10:19.143Z,99.90
2019-05-02T10:12:48.987Z,99.90
2019-05-02T10:15:19.124Z,99.90
2019-05-02T10:17:49.008Z,99.90
2019-05-02T10:20:23.508Z,99.90
2019-05-02T10:22:52.816Z,99.90
2019-05-02T10:25:23.159Z,99.90
2019-05-02T10:27:53.259Z,99.90
2019-05-02T10:30:25.228Z,99.90
2019-05-02T10:32:57.294Z,99.90
2019-05-02T10:35:36.521Z,99.90
2019-05-02T10:37:59.675Z,99.90
2019-05-02T10:40:32.001Z,99.90
2019-05-02T10:43:02.773Z,99.90
2019-05-02T10:45:32.980Z,99.90
2019-05-02T10:48:03.555Z,99.90
2019-05-02T10:50:35.066Z,99.90
2019-05-02T10:53:11.027Z,99.90
2019-05-02T10:55:36.665Z,99.90
2019-05-02T10:58:06.570Z,99.90
2019-05-02T11:00:38.263Z,99.90
2019-05-02T11:03:22.528Z,99.90
2019-05-02T11:05:58.013Z,99.90
2019-05-02T11:08:25.648Z,99.90
2019-05-02T11:10:55.535Z,99.90
2019-05-02T11:13:32.172Z,99.90
2019-05-02T11:16:21.634Z,99.90
2019-05-02T11:18:54.407Z,99.90
2019-05-02T11:21:24.594Z,99.90
2019-05-02T11:23:54.678Z,99.90
2019-05-02T11:26:25.279Z,99.90
2019-05-02T11:28:55.397Z,99.90
2019-05-02T11:31:25.389Z,99.90
2019-05-02T11:33:55.320Z,99.90
2019-05-02T11:36:27.449Z,99.90
2019-05-02T11:39:05.538Z,99.90
2019-05-02T11:41:28.245Z,99.90
2019-05-02T11:43:58.162Z,99.90
2019-05-02T11:46:28.033Z,99.90
2019-05-02T11:48:58.695Z,99.90
2019-05-02T11:51:28.879Z,99.90
2019-05-02T11:53:59.449Z,99.90
2019-05-02T11:56:32.789Z,99.90
2019-05-02T11:59:02.832Z,99.90
2019-05-02T12:01:37.370Z,99.90
2019-05-02T12:04:07.688Z,99.90
2019-05-02T12:06:36.221Z,99.90
2019-05-02T12:09:09.570Z,99.90
2019-05-02T12:11:41.739Z,99.90
2019-05-02T12:14:12.352Z,99.90
2019-05-02T12:16:43.124Z,99.90
2019-05-02T12:19:14.921Z,99.90
2019-05-02T12:21:53.802Z,99.90
2019-05-02T12:24:23.678Z,99.90
2019-05-02T12:26:54.619Z,99.90
2019-05-02T12:29:24.559Z,99.90
2019-05-02T12:32:15.370Z,99.90
2019-05-02T12:34:44.087Z,99.90
2019-05-02T12:37:14.041Z,99.90
2019-05-02T12:39:43.887Z,99.90
2019-05-02T12:42:14.164Z,99.90
2019-05-02T12:44:44.504Z,99.90
2019-05-02T12:47:14.469Z,99.90
2019-05-02T12:49:44.664Z,99.90
2019-05-02T12:52:14.604Z,99.90
2019-05-02T12:54:44.503Z,99.90
2019-05-02T12:57:14.399Z,99.90
2019-05-02T12:59:44.267Z,99.90
2019-05-02T13:02:15.905Z,99.90
2019-05-02T13:04:47.169Z,99.90
2019-05-02T13:07:18.022Z,99.90
2019-05-02T13:09:47.902Z,99.90
2019-05-02T13:12:19.423Z,99.90
2019-05-02T13:14:49.345Z,99.90
2019-05-02T13:17:19.291Z,99.90
2019-05-02T13:19:57.013Z,99.90
2019-05-02T13:22:25.209Z,99.90
2019-05-02T13:24:56.677Z,99.90
2019-05-02T13:27:26.759Z,99.90
2019-05-02T13:29:56.754Z,99.90
2019-05-02T13:32:34.162Z,99.90
2019-05-02T13:35:15.751Z,99.90
2019-05-02T13:37:47.226Z,99.90
2019-05-02T13:40:22.578Z,99.90
2019-05-02T13:42:52.862Z,99.90
2019-05-02T13:45:32.292Z,99.90
2019-05-02T13:48:02.747Z,99.90
2019-05-02T13:50:32.779Z,99.90
2019-05-02T13:53:02.947Z,99.90
2019-05-02T13:55:43.444Z,99.90
2019-05-02T13:58:13.399Z,99.90
2019-05-02T14:00:47.457Z,99.90
2019-05-02T14:03:17.856Z,99.90
2019-05-02T14:05:53.693Z,99.90
2019-05-02T14:08:35.375Z,99.90
2019-05-02T14:11:07.138Z,99.90
2019-05-02T14:13:37.494Z,99.90
2019-05-02T14:16:07.360Z,99.90
2019-05-02T14:18:37.262Z,99.90
2019-05-02T14:21:07.189Z,99.90
2019-05-02T14:23:37.116Z,99.90
2019-05-02T14:26:07.180Z,99.90
2019-05-02T14:28:37.096Z,99.90
2019-05-02T14:31:07.091Z,99.90
2019-05-02T14:33:38.563Z,99.90
2019-05-02T14:36:08.407Z,99.90
2019-05-02T14:38:38.337Z,99.90
2019-05-02T14:41:09.746Z,99.90
2019-05-02T14:43:55.727Z,99.90
2019-05-02T14:46:34.237Z,99.90
2019-05-02T14:48:58.063Z,99.90
2019-05-02T14:51:28.235Z,99.90
2019-05-02T14:54:05.840Z,99.90
2019-05-02T14:56:32.872Z,99.90
2019-05-02T14:59:03.336Z,99.90
2019-05-02T15:01:33.321Z,99.90
2019-05-02T15:04:07.954Z,99.90
2019-05-02T15:06:38.380Z,99.90
2019-05-02T15:09:08.803Z,99.90
2019-05-02T15:11:42.616Z,99.90
2019-05-02T15:14:18.364Z,99.90
2019-05-02T15:16:45.256Z,99.90
2019-05-02T15:19:15.004Z,99.90
2019-05-02T15:21:47.037Z,99.90
2019-05-02T15:24:17.524Z,99.90
2019-05-02T15:26:48.018Z,99.90
2019-05-02T15:29:19.857Z,99.90
2019-05-02T15:32:09.099Z,99.90
2019-05-02T15:34:55.958Z,99.90
2019-05-02T15:37:26.119Z,99.90
2019-05-02T15:42:27.528Z,99.90
2019-05-02T15:45:02.049Z,99.90
2019-05-02T15:47:31.946Z,99.90
2019-05-02T15:50:02.988Z,99.90
2019-05-02T15:52:34.732Z,99.90
2019-05-02T15:55:06.654Z,99.90
2019-05-02T15:57:42.799Z,99.90
2019-05-02T16:00:15.500Z,99.90
2019-05-02T16:02:43.102Z,99.90
2019-05-02T16:05:14.196Z,99.90
2019-05-02T16:07:46.678Z,99.90
2019-05-02T16:10:16.040Z,99.90
2019-05-02T16:12:47.573Z,99.90
2019-05-02T16:15:21.474Z,99.90
2019-05-02T16:17:48.990Z,99.90
2019-05-02T16:20:24.055Z,99.90
2019-05-02T16:22:54.173Z,99.90
2019-05-02T16:25:25.928Z,99.90
2019-05-02T16:27:57.422Z,99.90
2019-05-02T16:30:27.415Z,99.90
2019-05-02T16:32:58.859Z,99.90
2019-05-02T16:35:30.305Z,99.90
2019-05-02T16:38:00.311Z,99.90
2019-05-02T16:40:32.809Z,99.90
2019-05-02T16:43:02.858Z,99.90
2019-05-02T16:45:32.976Z,99.90
2019-05-02T16:48:03.423Z,99.90
2019-05-02T16:50:36.747Z,99.90
2019-05-02T16:53:05.392Z,99.90
2019-05-02T16:55:35.389Z,99.90
2019-05-02T16:58:07.366Z,99.90
2019-05-02T17:00:41.839Z,99.90
2019-05-02T17:03:08.612Z,99.90
2019-05-02T17:05:39.348Z,99.90
2019-05-02T17:08:18.861Z,99.90
2019-05-02T17:10:47.259Z,99.90
2019-05-02T17:13:17.220Z,99.90
2019-05-02T17:15:47.147Z,99.90
2019-05-02T17:18:18.217Z,99.90
2019-05-02T17:20:54.944Z,99.90
2019-05-02T17:23:22.131Z,99.90
2019-05-02T17:25:52.148Z,99.90
2019-05-02T17:28:22.762Z,99.90
2019-05-02T17:30:52.710Z,99.90
2019-05-02T17:33:22.596Z,99.90
2019-05-02T17:35:54.366Z,99.90
2019-05-02T17:38:28.893Z,99.90
2019-05-02T17:40:59.336Z,99.90
2019-05-02T17:43:27.003Z,99.90
2019-05-02T17:45:56.960Z,99.90
2019-05-02T17:48:26.860Z,99.90
2019-05-02T17:51:04.385Z,99.90
2019-05-02T17:53:41.540Z,99.90
2019-05-02T17:56:06.073Z,99.90
2019-05-02T17:58:35.951Z,99.90
2019-05-02T18:01:07.564Z,99.90
2019-05-02T18:03:37.431Z,99.90
2019-05-02T18:06:12.544Z,99.90
2019-05-02T18:08:39.098Z,99.90
2019-05-02T18:11:09.235Z,99.90
2019-05-02T18:13:39.200Z,99.90
2019-05-02T18:16:15.121Z,99.90
2019-05-02T18:18:43.713Z,99.90
2019-05-02T18:21:12.791Z,99.90
2019-05-02T18:23:43.009Z,99.90
2019-05-02T18:26:13.043Z,99.90
2019-05-02T18:28:49.003Z,99.90
2019-05-02T18:31:14.571Z,99.90
2019-05-02T18:33:44.638Z,99.90
2019-05-02T18:36:17.380Z,99.90
2019-05-02T18:38:46.103Z,99.90
2019-05-02T18:41:16.022Z,99.90
2019-05-02T18:43:45.900Z,99.90
2019-05-02T18:46:15.932Z,99.90
2019-05-02T18:48:49.003Z,99.90
2019-05-02T18:51:19.024Z,99.90
2019-05-02T18:53:49.077Z,99.90
2019-05-02T18:56:18.989Z,99.90
2019-05-02T18:58:48.851Z,99.90
2019-05-02T19:01:20.943Z,99.90
2019-05-02T19:03:52.433Z,99.90
2019-05-02T19:06:22.168Z,99.90
2019-05-02T19:08:55.424Z,99.90
2019-05-02T19:11:26.754Z,99.90
2019-05-02T19:13:57.843Z,99.90
2019-05-02T19:16:28.845Z,99.90
2019-05-02T19:19:01.739Z,99.90
2019-05-02T19:21:36.782Z,99.90
2019-05-02T19:24:04.608Z,99.90
2019-05-02T19:26:34.482Z,99.90
2019-05-02T19:29:16.966Z,99.90
2019-05-02T19:31:46.307Z,99.90
2019-05-02T19:34:21.994Z,99.90
2019-05-02T19:36:48.300Z,99.90
2019-05-02T19:39:18.184Z,99.90
2019-05-02T19:41:48.084Z,99.90
2019-05-02T19:44:26.149Z,99.90
2019-05-02T19:46:49.478Z,99.90
2019-05-02T19:49:19.452Z,99.90
2019-05-02T19:51:50.353Z,99.90
2019-05-02T19:54:21.846Z,99.90
2019-05-02T19:56:52.480Z,99.90
2019-05-02T19:59:26.314Z,99.90
2019-05-02T20:01:56.920Z,99.90
2019-05-02T20:04:25.805Z,99.90
2019-05-02T20:06:55.721Z,99.90
2019-05-02T20:09:25.708Z,99.90
2019-05-02T20:11:55.635Z,99.90
2019-05-02T20:14:25.634Z,99.90
2019-05-02T20:16:57.055Z,99.90
2019-05-02T20:19:27.647Z,99.90
2019-05-02T20:22:02.977Z,99.90
2019-05-02T20:24:49.152Z,99.90
2019-05-02T20:27:22.295Z,99.90
2019-05-02T20:29:52.849Z,99.90
2019-05-02T20:32:23.735Z,99.90
2019-05-02T20:34:53.620Z,99.90
2019-05-02T20:37:23.546Z,99.90
2019-05-02T20:39:53.698Z,99.90
2019-05-02T20:42:23.591Z,99.90
2019-05-02T20:44:54.543Z,99.90
2019-05-02T20:47:25.739Z,99.90
2019-05-02T20:49:55.633Z,99.90
2019-05-02T20:52:25.544Z,99.90
2019-05-02T20:54:55.478Z,99.90
2019-05-02T20:57:25.358Z,99.90
2019-05-02T20:59:55.342Z,99.90
2019-05-02T21:02:25.237Z,99.90
2019-05-02T21:04:55.132Z,99.90
2019-05-02T21:07:26.707Z,99.90
2019-05-02T21:10:01.952Z,99.90
2019-05-02T21:12:32.117Z,99.90
2019-05-02T21:15:02.280Z,99.90
2019-05-02T21:17:33.285Z,99.90
2019-05-02T21:20:03.370Z,99.90
2019-05-02T21:22:35.227Z,99.90
2019-05-02T21:25:07.091Z,99.90
2019-05-02T21:27:36.980Z,99.90
2019-05-02T21:30:12.358Z,99.90
2019-05-02T21:32:42.827Z,99.90
2019-05-02T21:35:13.046Z,99.90
2019-05-02T21:37:42.907Z,99.90
2019-05-02T21:40:13.013Z,99.90
2019-05-02T21:42:43.103Z,99.90
2019-05-02T21:45:13.350Z,99.90
2019-05-02T21:47:43.292Z,99.90
2019-05-02T21:50:15.077Z,99.90
2019-05-02T21:52:46.612Z,99.90
2019-05-02T21:55:24.094Z,99.90
2019-05-02T21:57:54.006Z,99.90
2019-05-02T22:00:45.877Z,99.90
2019-05-02T22:03:16.415Z,99.90
2019-05-02T22:05:46.659Z,99.90
2019-05-02T22:08:16.645Z,99.90
2019-05-02T22:10:46.767Z,99.90
2019-05-02T22:13:16.625Z,99.90
2019-05-02T22:15:46.538Z,99.90
2019-05-02T22:18:16.631Z,99.90
2019-05-02T22:20:46.537Z,99.90
2019-05-02T22:23:16.546Z,99.90
2019-05-02T22:25:46.426Z,99.90
2019-05-02T22:28:16.340Z,99.90
2019-05-02T22:30:46.210Z,99.90
2019-05-02T22:33:16.087Z,99.90
2019-05-02T22:35:45.948Z,99.90
2019-05-02T22:38:34.306Z,99.90
2019-05-02T22:41:04.287Z,99.90
2019-05-02T22:43:34.290Z,99.90
2019-05-02T22:46:05.776Z,99.90
2019-05-02T22:48:35.839Z,99.90
2019-05-02T22:51:05.798Z,99.90
2019-05-02T22:53:53.827Z,99.90
2019-05-02T22:56:23.726Z,99.90
2019-05-02T22:58:53.646Z,99.90
2019-05-02T23:01:23.605Z,99.90
2019-05-02T23:03:53.503Z,99.90
2019-05-02T23:06:23.437Z,99.90
2019-05-02T23:08:53.319Z,99.90
2019-05-02T23:11:24.515Z,99.90
2019-05-02T23:13:54.562Z,99.90
2019-05-02T23:16:24.958Z,99.90
2019-05-02T23:18:54.832Z,99.90
2019-05-02T23:21:24.999Z,99.90
2019-05-02T23:23:55.102Z,99.90
2019-05-02T23:26:32.442Z,99.90
2019-05-02T23:29:03.939Z,99.90
2019-05-02T23:31:33.818Z,99.90
2019-05-02T23:34:03.702Z,99.90
2019-05-02T23:36:36.216Z,99.90
2019-05-02T23:39:09.415Z,99.90
2019-05-02T23:41:39.680Z,99.90
2019-05-02T23:44:09.578Z,99.90
2019-05-02T23:46:39.494Z,99.90
2019-05-02T23:49:09.359Z,99.90
2019-05-02T23:51:40.240Z,99.90
2019-05-02T23:54:10.099Z,99.90
2019-05-02T23:56:40.139Z,99.90
2019-05-02T23:59:11.772Z,99.90
